Time;durP1;ratioP1;P1;durP2;ratioP2;P2;SDS_P1;SDS_P2;PMS_P1;PMS_P2;Temp;Humidity;BMP_temperature;BMP_pressure;BME280_temperature;BME280_humidity;BME280_pressure;Samples;Min_cycle;Max_cycle;Signal;HPM_P1;HPM_P2
2022/08/04 02:29:04;;;;;;;16.60;15.70;;;21.60;99.90;;;;;;5914075;23;20415;-67
2022/08/04 02:31:33;;;;;;;17.60;16.23;;;21.60;99.90;;;;;;4893984;29;20474;-67
2022/08/04 02:34:06;;;;;;;17.87;16.67;;;21.60;99.90;;;;;;4893763;29;20836;-65
2022/08/04 02:36:36;;;;;;;17.33;16.33;;;21.60;99.90;;;;;;4896973;29;20498;-66
2022/08/04 02:39:06;;;;;;;16.03;15.17;;;21.60;99.90;;;;;;4895891;29;20992;-65
2022/08/04 02:41:34;;;;;;;17.43;16.07;;;21.60;99.90;;;;;;4896681;29;20822;-65
2022/08/04 02:44:04;;;;;;;20.70;17.47;;;21.60;99.90;;;;;;4896690;29;20828;-66
2022/08/04 02:46:33;;;;;;;17.10;15.70;;;21.60;99.90;;;;;;4896340;29;20576;-65
2022/08/04 02:49:02;;;;;;;17.17;15.93;;;21.60;99.90;;;;;;4896294;29;20465;-68
2022/08/04 02:51:31;;;;;;;18.30;17.10;;;21.50;99.90;;;;;;4896578;29;20459;-68
2022/08/04 02:53:59;;;;;;;16.83;15.73;;;21.50;99.90;;;;;;4896553;29;20506;-68
2022/08/04 02:56:29;;;;;;;18.30;16.63;;;21.40;99.90;;;;;;4896475;29;20487;-67
2022/08/04 02:59:00;;;;;;;17.17;16.03;;;21.40;99.90;;;;;;4896833;29;20784;-67
2022/08/04 03:01:28;;;;;;;18.73;17.43;;;21.20;99.90;;;;;;4896537;29;20447;-66
2022/08/04 03:04:10;;;;;;;16.83;15.90;;;21.20;99.90;;;;;;4896447;29;20961;-67
2022/08/04 03:07:18;;;;;;;17.10;15.90;;;21.10;99.90;;;;;;4896431;29;20454;-68
2022/08/04 03:10:23;;;;;;;19.10;17.77;;;21.10;99.90;;;;;;4895979;29;20542;-66
2022/08/04 03:13:25;;;;;;;16.90;15.97;;;21.10;99.90;;;;;;4895981;29;20462;-66
2022/08/04 03:16:01;;;;;;;17.57;16.47;;;21.20;99.90;;;;;;4895988;29;21063;-64
2022/08/04 03:19:01;;;;;;;18.80;17.60;;;21.00;99.90;;;;;;4896540;29;20451;-65
2022/08/04 03:22:00;;;;;;;17.37;16.10;;;20.90;99.90;;;;;;4895994;29;20459;-65
2022/08/04 03:24:54;;;;;;;17.90;16.57;;;20.90;99.90;;;;;;4896250;29;20464;-65
2022/08/04 03:27:54;;;;;;;17.17;16.27;;;20.80;99.90;;;;;;4895813;29;20466;-66
2022/08/04 03:30:29;;;;;;;17.53;16.43;;;20.80;99.90;;;;;;4865409;29;20495;-66
2022/08/04 03:33:30;;;;;;;18.47;17.43;;;20.80;99.90;;;;;;4877559;29;20460;-67
2022/08/04 03:36:46;;;;;;;17.27;16.27;;;20.80;99.90;;;;;;4877233;29;20495;-67
2022/08/04 03:39:37;;;;;;;17.50;16.30;;;20.80;99.90;;;;;;4856074;29;20461;-66
2022/08/04 03:42:27;;;;;;;18.07;17.03;;;20.80;99.90;;;;;;4875571;29;20456;-66
2022/08/04 03:45:24;;;;;;;17.90;16.90;;;20.70;99.90;;;;;;4877036;29;20993;-67
2022/08/04 03:48:19;;;;;;;17.27;15.93;;;20.70;99.90;;;;;;4876778;29;20463;-67
2022/08/04 03:54:17;;;;;;;17.67;16.50;;;20.70;99.90;;;;;;4876798;29;20499;-67
2022/08/04 03:57:07;;;;;;;16.83;15.93;;;20.70;99.90;;;;;;4876750;29;20547;-67
2022/08/04 03:59:55;;;;;;;16.57;15.60;;;20.80;99.90;;;;;;4876227;29;20713;-66
2022/08/04 04:03:09;;;;;;;16.53;15.33;;;20.80;99.90;;;;;;4876744;29;20890;-66
2022/08/04 04:06:13;;;;;;;16.67;15.67;;;20.80;99.90;;;;;;4876700;29;20428;-67
2022/08/04 04:09:09;;;;;;;16.33;15.40;;;20.80;99.90;;;;;;4876962;29;20459;-66
2022/08/04 04:11:57;;;;;;;17.73;16.47;;;20.80;99.90;;;;;;4865087;29;20459;-67
2022/08/04 04:14:48;;;;;;;16.63;15.63;;;20.70;99.90;;;;;;4876453;29;21018;-66
2022/08/04 04:17:34;;;;;;;17.70;16.30;;;20.70;99.90;;;;;;4876593;29;20869;-67
2022/08/04 04:20:17;;;;;;;16.40;15.50;;;20.60;99.90;;;;;;4876606;29;20491;-67
2022/08/04 04:23:12;;;;;;;16.77;15.77;;;20.70;99.90;;;;;;4876403;29;20456;-65
2022/08/04 04:25:55;;;;;;;16.20;15.30;;;20.70;99.90;;;;;;4868959;29;20463;-67
2022/08/04 04:28:47;;;;;;;16.27;15.30;;;20.70;99.90;;;;;;4876499;29;20478;-67
2022/08/04 04:31:34;;;;;;;19.70;18.30;;;20.80;99.90;;;;;;4876133;29;20796;-67
2022/08/04 04:34:12;;;;;;;17.40;16.10;;;20.80;99.90;;;;;;4876427;29;20871;-68
2022/08/04 04:36:53;;;;;;;17.63;16.43;;;20.80;99.90;;;;;;4876346;29;20974;-69
2022/08/04 04:39:30;;;;;;;18.13;16.67;;;20.80;99.90;;;;;;4876295;29;20471;-68
2022/08/04 04:42:18;;;;;;;16.20;15.40;;;20.90;99.90;;;;;;4876845;29;20456;-67
2022/08/04 04:45:22;;;;;;;16.23;15.10;;;20.80;99.90;;;;;;4876289;29;20819;-68
2022/08/04 04:47:56;;;;;;;17.97;16.87;;;20.80;99.90;;;;;;4875958;29;20550;-69
2022/08/04 04:50:32;;;;;;;18.23;17.23;;;20.80;99.90;;;;;;4876175;29;20452;-67
2022/08/04 04:53:09;;;;;;;18.37;17.03;;;21.10;99.90;;;;;;4876381;29;20523;-69
2022/08/04 04:55:43;;;;;;;18.03;16.87;;;21.50;99.90;;;;;;4876136;29;20444;-68
2022/08/04 04:58:14;;;;;;;17.40;16.17;;;21.90;99.90;;;;;;4876431;29;20463;-69
2022/08/04 05:01:22;;;;;;;20.00;17.97;;;22.30;99.90;;;;;;4876180;29;20456;-69
2022/08/04 05:04:06;;;;;;;18.57;16.93;;;22.60;99.90;;;;;;4875844;29;20456;-69
2022/08/04 05:06:51;;;;;;;18.60;17.33;;;22.70;99.90;;;;;;4876018;29;20531;-68
2022/08/04 05:09:42;;;;;;;17.70;16.53;;;22.90;99.90;;;;;;4876291;29;20788;-69
2022/08/04 05:12:25;;;;;;;17.30;16.20;;;23.20;99.90;;;;;;4878024;29;20871;-68
2022/08/04 05:14:55;;;;;;;17.90;16.90;;;23.20;99.90;;;;;;4879614;29;20942;-68
2022/08/04 05:17:27;;;;;;;19.20;17.97;;;23.20;99.90;;;;;;4879675;29;20825;-69
2022/08/04 05:19:59;;;;;;;16.40;15.50;;;23.30;99.90;;;;;;4879595;29;20467;-69
2022/08/04 05:22:31;;;;;;;16.30;15.03;;;23.40;99.90;;;;;;4879614;29;20459;-69
2022/08/04 05:25:05;;;;;;;16.37;15.30;;;23.50;99.90;;;;;;4879643;29;20831;-70
2022/08/04 05:27:38;;;;;;;16.20;15.40;;;23.60;99.90;;;;;;4879380;29;20656;-69
2022/08/04 05:30:07;;;;;;;15.10;14.30;;;23.60;99.90;;;;;;4878807;29;20491;-68
2022/08/04 05:32:41;;;;;;;14.57;13.73;;;23.60;99.90;;;;;;4879610;29;20467;-69
2022/08/04 05:35:11;;;;;;;14.87;13.90;;;23.80;99.90;;;;;;4879670;29;20965;-69
2022/08/04 05:37:41;;;;;;;15.77;14.83;;;23.90;99.90;;;;;;4879272;29;20498;-69
2022/08/04 05:40:10;;;;;;;17.70;15.63;;;23.90;99.90;;;;;;4879220;29;20463;-68
2022/08/04 05:42:39;;;;;;;15.97;14.90;;;24.10;99.90;;;;;;4879136;29;20502;-68
2022/08/04 05:45:09;;;;;;;16.40;15.40;;;24.30;99.90;;;;;;4878942;29;20507;-69
2022/08/04 05:47:38;;;;;;;14.87;14.00;;;24.50;99.90;;;;;;4879027;29;20464;-68
2022/08/04 05:50:06;;;;;;;16.07;14.97;;;24.70;99.90;;;;;;4879070;29;20464;-68
2022/08/04 05:52:35;;;;;;;16.43;15.23;;;24.80;99.90;;;;;;4878678;29;20525;-69
2022/08/04 05:55:03;;;;;;;14.90;14.00;;;24.90;99.90;;;;;;4878933;29;20551;-68
2022/08/04 05:57:31;;;;;;;15.70;14.60;;;25.00;99.90;;;;;;4879025;29;20891;-68
2022/08/04 06:00:01;;;;;;;17.03;15.73;;;25.10;99.90;;;;;;4879186;29;20464;-68
2022/08/04 06:02:30;;;;;;;15.77;14.83;;;25.30;99.90;;;;;;4879118;29;20448;-68
2022/08/04 06:04:59;;;;;;;17.33;16.40;;;25.30;99.90;;;;;;4878821;29;20467;-73
2022/08/04 06:07:26;;;;;;;17.33;16.30;;;25.40;99.90;;;;;;4878332;29;20456;-73
2022/08/04 06:09:55;;;;;;;17.87;16.67;;;25.60;99.90;;;;;;4878142;29;20479;-73
2022/08/04 06:12:25;;;;;;;17.47;16.23;;;25.90;99.90;;;;;;4878736;29;21104;-73
2022/08/04 06:14:56;;;;;;;16.83;15.57;;;26.10;99.90;;;;;;4877868;29;20479;-74
2022/08/04 06:17:25;;;;;;;16.03;15.20;;;25.90;99.90;;;;;;4878478;29;20493;-73
2022/08/04 06:19:54;;;;;;;16.90;15.80;;;26.10;99.90;;;;;;4878768;29;20460;-73
2022/08/04 06:22:24;;;;;;;18.27;16.70;;;26.30;99.90;;;;;;4878405;29;20464;-73
2022/08/04 06:24:54;;;;;;;15.83;14.97;;;26.40;99.50;;;;;;4877896;29;20467;-75
2022/08/04 06:27:21;;;;;;;16.23;15.20;;;26.50;98.50;;;;;;4878297;29;20966;-72
2022/08/04 06:29:49;;;;;;;16.43;15.43;;;26.80;97.90;;;;;;4878047;29;20492;-69
2022/08/04 06:32:26;;;;;;;17.20;16.20;;;26.80;97.30;;;;;;4878578;29;20456;-68
2022/08/04 06:34:55;;;;;;;15.30;14.40;;;27.10;96.60;;;;;;4878350;29;20478;-69
2022/08/04 06:37:25;;;;;;;16.47;15.70;;;27.30;96.30;;;;;;4878153;29;21005;-69
2022/08/04 06:39:52;;;;;;;16.60;15.40;;;27.60;95.50;;;;;;4878502;29;20463;-69
2022/08/04 06:42:22;;;;;;;17.77;16.87;;;28.10;94.50;;;;;;4877970;29;20464;-69
2022/08/04 06:44:51;;;;;;;16.70;15.83;;;28.40;93.60;;;;;;4877858;29;20460;-69
2022/08/04 06:47:20;;;;;;;14.63;13.93;;;28.60;93.10;;;;;;4877927;29;20910;-68
2022/08/04 06:49:48;;;;;;;16.37;15.60;;;28.80;92.50;;;;;;4878104;29;20467;-70
2022/08/04 06:52:16;;;;;;;14.97;14.30;;;29.30;92.00;;;;;;4878094;29;20467;-68
2022/08/04 06:54:45;;;;;;;15.50;14.77;;;29.70;91.20;;;;;;4877998;29;20452;-69
2022/08/04 06:57:15;;;;;;;17.70;16.67;;;30.20;90.30;;;;;;4877928;29;20495;-70
2022/08/04 06:59:44;;;;;;;16.33;15.63;;;30.40;88.70;;;;;;4877864;29;20471;-69
2022/08/04 07:02:15;;;;;;;16.83;15.70;;;30.60;87.20;;;;;;4878045;29;20449;-68
2022/08/04 07:04:43;;;;;;;17.20;16.40;;;30.40;87.30;;;;;;4877506;29;21039;-70
2022/08/04 07:07:10;;;;;;;17.97;16.97;;;30.50;87.70;;;;;;4877737;29;21005;-69
2022/08/04 07:09:37;;;;;;;18.00;17.17;;;30.70;86.50;;;;;;4877595;29;20452;-69
2022/08/04 07:12:06;;;;;;;17.13;15.93;;;30.90;85.50;;;;;;4877787;29;20452;-70
2022/08/04 07:14:34;;;;;;;16.80;15.90;;;30.60;86.50;;;;;;4877492;29;21179;-70
2022/08/04 07:17:02;;;;;;;16.07;15.37;;;30.80;86.00;;;;;;4877492;29;20547;-70
2022/08/04 07:19:30;;;;;;;16.90;15.70;;;30.60;85.80;;;;;;4877348;29;20461;-70
2022/08/04 07:21:57;;;;;;;17.23;16.00;;;30.80;85.90;;;;;;4877699;29;20459;-70
2022/08/04 07:24:29;;;;;;;16.53;15.73;;;30.90;85.00;;;;;;4877439;29;21010;-70
2022/08/04 07:26:56;;;;;;;17.50;16.27;;;30.90;84.90;;;;;;4877660;29;20460;-70
2022/08/04 07:29:25;;;;;;;16.00;15.20;;;30.90;84.80;;;;;;4877298;29;20500;-70
2022/08/04 07:31:54;;;;;;;16.40;15.30;;;31.00;85.00;;;;;;4877201;29;20490;-70
2022/08/04 07:34:21;;;;;;;16.10;15.20;;;31.20;83.90;;;;;;4876923;29;20463;-70
2022/08/04 07:36:48;;;;;;;16.77;15.87;;;31.30;83.70;;;;;;4876813;29;20492;-71
2022/08/04 07:39:15;;;;;;;15.73;15.13;;;31.20;83.90;;;;;;4877189;29;20468;-70
2022/08/04 07:41:43;;;;;;;16.70;15.80;;;31.20;84.40;;;;;;4877316;29;20873;-69
2022/08/04 07:44:10;;;;;;;15.77;14.90;;;31.30;83.00;;;;;;4876825;29;20480;-69
2022/08/04 07:46:38;;;;;;;17.03;16.17;;;31.30;83.00;;;;;;4877086;29;20812;-69
2022/08/04 07:49:06;;;;;;;16.23;15.20;;;31.50;82.20;;;;;;4877475;29;20469;-69
2022/08/04 07:51:35;;;;;;;15.57;14.83;;;31.60;81.80;;;;;;4876968;29;20456;-69
2022/08/04 07:54:03;;;;;;;16.90;15.83;;;31.80;80.30;;;;;;4876575;29;20456;-69
2022/08/04 07:56:31;;;;;;;15.67;14.67;;;32.20;79.30;;;;;;4876865;29;20487;-70
2022/08/04 07:58:59;;;;;;;16.93;16.03;;;32.50;77.70;;;;;;4876982;29;20825;-70
2022/08/04 08:01:26;;;;;;;15.97;15.20;;;32.30;77.00;;;;;;4877049;29;20458;-71
2022/08/04 08:03:56;;;;;;;17.50;16.17;;;32.50;76.60;;;;;;4876969;29;20535;-70
2022/08/04 08:06:23;;;;;;;15.80;15.10;;;32.50;76.70;;;;;;4876735;29;20972;-70
2022/08/04 08:08:50;;;;;;;16.00;15.30;;;32.70;76.60;;;;;;4876770;29;20451;-71
2022/08/04 08:11:17;;;;;;;17.07;16.37;;;32.40;76.30;;;;;;4876684;29;20463;-70
2022/08/04 08:13:44;;;;;;;17.03;16.00;;;32.70;75.80;;;;;;4876655;29;20458;-70
2022/08/04 08:16:11;;;;;;;16.17;15.50;;;32.80;75.10;;;;;;4876825;29;20455;-71
2022/08/04 08:18:38;;;;;;;16.60;15.90;;;32.90;74.10;;;;;;4876400;29;20499;-70
2022/08/04 08:21:07;;;;;;;16.97;16.07;;;33.20;73.50;;;;;;4876564;29;20817;-71
2022/08/04 08:23:36;;;;;;;16.70;15.90;;;33.50;71.70;;;;;;4876624;29;20911;-71
2022/08/04 08:26:02;;;;;;;16.10;15.40;;;33.60;70.90;;;;;;4876690;29;20783;-71
2022/08/04 08:28:29;;;;;;;16.77;15.80;;;33.50;71.00;;;;;;4876612;29;20472;-70
2022/08/04 08:30:56;;;;;;;17.07;16.37;;;33.40;71.30;;;;;;4876357;29;20491;-70
2022/08/04 08:33:24;;;;;;;15.30;14.70;;;33.30;71.20;;;;;;4877143;29;20460;-69
2022/08/04 08:35:56;;;;;;;17.13;16.03;;;33.50;70.00;;;;;;4876733;29;20456;-69
2022/08/04 08:38:35;;;;;;;17.20;16.30;;;34.00;68.30;;;;;;4876337;29;20496;-68
2022/08/04 08:41:21;;;;;;;16.87;15.97;;;34.50;64.50;;;;;;4876401;29;20450;-69
2022/08/04 08:44:10;;;;;;;15.80;15.10;;;34.80;64.00;;;;;;4876427;29;20456;-69
2022/08/04 08:46:49;;;;;;;16.20;15.50;;;35.10;63.20;;;;;;4877716;29;20492;-69
2022/08/04 08:49:53;;;;;;;18.07;17.17;;;35.60;62.00;;;;;;4880347;29;20725;-69
2022/08/04 08:52:32;;;;;;;17.00;16.03;;;36.20;60.00;;;;;;4879893;29;20570;-69
2022/08/04 08:55:23;;;;;;;16.10;15.10;;;36.70;57.90;;;;;;4880082;29;20482;-70
2022/08/04 08:58:02;;;;;;;16.00;15.40;;;36.40;57.50;;;;;;4880005;29;20519;-69
2022/08/04 09:00:41;;;;;;;16.30;15.70;;;36.50;57.50;;;;;;4879953;29;20462;-70
2022/08/04 09:03:41;;;;;;;16.53;15.93;;;36.90;57.90;;;;;;4880249;29;20886;-70
2022/08/04 09:06:31;;;;;;;16.97;16.27;;;36.50;57.70;;;;;;4880123;29;20464;-70
2022/08/04 09:09:32;;;;;;;17.30;16.50;;;37.00;56.60;;;;;;4879794;29;20456;-69
2022/08/04 09:12:09;;;;;;;17.10;16.40;;;37.40;56.40;;;;;;4877672;29;20524;-70
2022/08/04 09:14:52;;;;;;;16.90;16.30;;;38.30;54.40;;;;;;4879687;29;20459;-70
2022/08/04 09:17:27;;;;;;;18.00;17.30;;;38.30;53.50;;;;;;4879345;29;20494;-70
2022/08/04 09:20:01;;;;;;;17.47;16.77;;;38.20;53.70;;;;;;4879851;29;20471;-70
2022/08/04 09:22:35;;;;;;;18.33;17.43;;;38.40;52.80;;;;;;4879707;29;20459;-70
2022/08/04 09:25:08;;;;;;;16.77;15.97;;;38.30;52.90;;;;;;4879766;29;20439;-71
2022/08/04 09:27:44;;;;;;;16.53;15.83;;;38.50;52.60;;;;;;4879252;29;20460;-70
2022/08/04 09:30:13;;;;;;;18.10;17.30;;;38.40;52.20;;;;;;4879293;29;20590;-70
2022/08/04 09:32:50;;;;;;;16.10;15.40;;;38.70;51.70;;;;;;4879466;29;20969;-70
2022/08/04 09:35:24;;;;;;;16.57;15.77;;;38.50;51.00;;;;;;4879421;29;20456;-70
2022/08/04 09:38:00;;;;;;;16.43;15.83;;;38.30;51.20;;;;;;4879034;29;20563;-70
2022/08/04 09:40:32;;;;;;;16.93;16.23;;;38.30;50.70;;;;;;4879489;29;20481;-70
2022/08/04 09:43:07;;;;;;;16.60;16.00;;;38.80;49.90;;;;;;4879309;29;20455;-70
2022/08/04 09:45:40;;;;;;;16.90;16.20;;;38.60;50.20;;;;;;4879081;29;20958;-70
2022/08/04 09:48:11;;;;;;;17.63;16.93;;;39.10;49.80;;;;;;4879242;29;20460;-70
2022/08/04 09:50:42;;;;;;;18.10;17.40;;;39.30;48.50;;;;;;4879325;29;20466;-70
2022/08/04 09:53:20;;;;;;;18.27;17.03;;;39.80;48.00;;;;;;4879133;29;20452;-70
2022/08/04 09:55:55;;;;;;;17.80;17.10;;;40.50;46.40;;;;;;4879062;29;20468;-70
2022/08/04 09:58:31;;;;;;;17.63;16.87;;;40.00;47.10;;;;;;4877854;29;20491;-70
2022/08/04 10:01:01;;;;;;;17.00;16.40;;;40.10;46.50;;;;;;4878909;29;20459;-70
2022/08/04 10:03:32;;;;;;;18.60;17.70;;;40.50;45.50;;;;;;4878857;29;20827;-70
2022/08/04 10:06:08;;;;;;;16.87;16.27;;;40.40;45.40;;;;;;4878588;29;20444;-70
2022/08/04 10:08:52;;;;;;;16.20;15.50;;;40.10;45.40;;;;;;4878813;29;20456;-70
2022/08/04 10:11:29;;;;;;;17.67;16.57;;;40.70;44.50;;;;;;4878921;29;20459;-70
2022/08/04 10:14:07;;;;;;;16.17;15.57;;;40.90;43.90;;;;;;4878801;29;20460;-70
2022/08/04 10:16:44;;;;;;;17.17;16.47;;;40.90;44.10;;;;;;4878422;29;20881;-70
2022/08/04 10:19:24;;;;;;;17.90;17.10;;;41.20;42.40;;;;;;4878620;29;20491;-70
2022/08/04 10:22:10;;;;;;;16.40;15.80;;;41.20;42.60;;;;;;4878588;29;20471;-71
2022/08/04 10:24:53;;;;;;;17.50;16.80;;;41.10;42.10;;;;;;4878610;29;20462;-70
2022/08/04 10:27:29;;;;;;;17.03;16.43;;;41.90;40.90;;;;;;4878504;29;20459;-71
2022/08/04 10:30:02;;;;;;;17.17;16.47;;;41.60;40.30;;;;;;4878460;29;20487;-71
2022/08/04 10:32:34;;;;;;;16.63;16.03;;;41.20;40.60;;;;;;4878636;29;20447;-71
2022/08/04 10:35:07;;;;;;;17.80;17.10;;;40.90;40.60;;;;;;4878412;29;20467;-71
2022/08/04 10:37:42;;;;;;;19.47;18.57;;;41.50;39.80;;;;;;4878391;29;20459;-71
2022/08/04 10:43:03;;;;;;;18.00;17.30;;;42.20;38.40;;;;;;4878344;29;20565;-71
2022/08/04 10:45:40;;;;;;;19.50;18.80;;;43.90;36.90;;;;;;4878228;29;20466;-71
2022/08/04 10:48:17;;;;;;;17.20;16.57;;;44.00;35.40;;;;;;4878174;29;20459;-71
2022/08/04 10:50:52;;;;;;;17.93;17.23;;;43.90;35.50;;;;;;4878107;29;20203;-70
2022/08/04 10:53:24;;;;;;;18.30;17.60;;;44.00;35.00;;;;;;4878038;29;20965;-71
2022/08/04 10:55:58;;;;;;;18.80;17.80;;;44.50;34.30;;;;;;4878078;29;20267;-70
2022/08/04 10:58:29;;;;;;;18.47;17.87;;;45.00;32.50;;;;;;4878163;29;20235;-70
2022/08/04 11:01:01;;;;;;;18.30;17.40;;;44.50;32.40;;;;;;4878215;29;20214;-71
2022/08/04 11:03:44;;;;;;;19.97;19.27;;;45.00;31.70;;;;;;4878228;29;20207;-71
2022/08/04 11:06:11;;;;;;;18.13;17.53;;;44.90;30.90;;;;;;4878065;29;20211;-71
2022/08/04 11:08:44;;;;;;;16.17;15.57;;;44.20;31.00;;;;;;4877792;29;20965;-71
2022/08/04 11:11:16;;;;;;;17.97;17.07;;;42.90;32.00;;;;;;4878074;29;20459;-71
2022/08/04 11:13:47;;;;;;;16.40;15.90;;;43.20;31.90;;;;;;4878162;29;20479;-71
2022/08/04 11:16:19;;;;;;;17.90;17.20;;;42.80;32.10;;;;;;4877864;29;20459;-70
2022/08/04 11:19:05;;;;;;;17.93;17.30;;;42.70;31.60;;;;;;4877298;29;20495;-71
2022/08/04 11:21:34;;;;;;;18.30;17.63;;;43.10;32.00;;;;;;4877843;29;20470;-70
2022/08/04 11:24:04;;;;;;;17.00;16.37;;;43.20;32.20;;;;;;4877446;29;20466;-70
2022/08/04 11:26:41;;;;;;;16.50;15.87;;;43.00;31.60;;;;;;4877462;29;20462;-71
2022/08/04 11:29:17;;;;;;;16.03;15.53;;;43.20;32.00;;;;;;4877390;29;20468;-71
2022/08/04 11:31:48;;;;;;;18.00;17.40;;;43.70;31.60;;;;;;4877403;29;20483;-71
2022/08/04 11:34:20;;;;;;;17.10;16.40;;;44.50;31.20;;;;;;4877467;29;20459;-71
2022/08/04 11:36:51;;;;;;;17.97;16.87;;;43.70;30.70;;;;;;4877319;29;20962;-71
2022/08/04 11:39:25;;;;;;;17.30;16.50;;;43.30;31.60;;;;;;4876882;29;21078;-71
2022/08/04 11:41:57;;;;;;;18.50;17.80;;;42.80;31.50;;;;;;4877281;29;20468;-71
2022/08/04 11:44:29;;;;;;;16.30;15.60;;;42.70;31.70;;;;;;4877485;29;20499;-71
2022/08/04 11:47:02;;;;;;;17.00;16.40;;;42.30;32.10;;;;;;4877466;29;20474;-70
2022/08/04 11:49:40;;;;;;;16.13;15.43;;;41.70;31.90;;;;;;4877320;29;20462;-71
2022/08/04 11:52:09;;;;;;;16.60;15.73;;;41.70;32.70;;;;;;4877192;29;20809;-70
2022/08/04 11:54:37;;;;;;;16.83;16.20;;;42.20;32.90;;;;;;4877151;29;21005;-71
2022/08/04 11:57:05;;;;;;;16.57;15.97;;;42.10;32.70;;;;;;4877012;29;20794;-71
2022/08/04 11:59:35;;;;;;;16.60;16.00;;;42.50;31.20;;;;;;4876947;29;21246;-71
2022/08/04 12:02:26;;;;;;;17.10;16.50;;;43.50;30.60;;;;;;4876957;29;20772;-71
2022/08/04 12:04:58;;;;;;;17.87;17.07;;;42.90;30.90;;;;;;4866974;29;20818;-71
2022/08/04 12:07:50;;;;;;;16.73;16.03;;;42.00;31.50;;;;;;4876800;29;20472;-71
2022/08/04 12:10:34;;;;;;;15.70;15.10;;;42.50;31.20;;;;;;4876834;29;20705;-70
2022/08/04 12:13:10;;;;;;;17.67;17.07;;;42.90;30.70;;;;;;4876641;29;20460;-70
2022/08/04 12:15:46;;;;;;;16.80;16.10;;;43.20;30.40;;;;;;4876652;29;20455;-69
2022/08/04 12:18:24;;;;;;;16.37;15.77;;;42.50;31.00;;;;;;4876933;29;20450;-69
2022/08/04 12:20:58;;;;;;;16.10;15.60;;;41.70;31.90;;;;;;4876215;29;20466;-72
2022/08/04 12:23:30;;;;;;;17.40;16.80;;;42.00;31.60;;;;;;4876869;29;20452;-70
2022/08/04 12:26:03;;;;;;;18.03;17.30;;;42.50;30.90;;;;;;4876816;29;20463;-70
2022/08/04 12:28:34;;;;;;;17.33;16.47;;;43.90;30.10;;;;;;4876341;29;20479;-72
2022/08/04 12:31:05;;;;;;;18.63;17.93;;;44.10;29.80;;;;;;4876418;29;21077;-70
2022/08/04 12:33:39;;;;;;;18.10;17.50;;;45.10;29.50;;;;;;4876617;29;20852;-70
2022/08/04 12:36:18;;;;;;;18.13;17.13;;;44.90;29.30;;;;;;4876642;29;20214;-71
2022/08/04 12:38:49;;;;;;;17.70;16.93;;;43.80;30.00;;;;;;4876330;29;20593;-70
2022/08/04 12:41:23;;;;;;;16.87;16.17;;;43.90;29.30;;;;;;4876382;29;21030;-70
2022/08/04 12:43:50;;;;;;;16.77;16.17;;;43.60;30.00;;;;;;4876613;29;20519;-70
2022/08/04 12:46:22;;;;;;;17.47;16.67;;;43.50;29.70;;;;;;4876418;29;20456;-70
2022/08/04 12:48:51;;;;;;;17.60;16.90;;;43.20;29.90;;;;;;4876129;29;20815;-70
2022/08/04 12:51:19;;;;;;;16.50;15.90;;;42.80;29.80;;;;;;4876327;29;20451;-70
2022/08/04 12:53:47;;;;;;;16.77;16.17;;;41.50;30.90;;;;;;4876393;29;20460;-70
2022/08/04 12:56:23;;;;;;;17.27;16.47;;;41.10;31.60;;;;;;4876390;29;20463;-70
2022/08/04 12:58:53;;;;;;;17.60;16.87;;;41.30;31.50;;;;;;4876431;29;20494;-70
2022/08/04 13:01:23;;;;;;;16.77;16.10;;;41.80;30.90;;;;;;4876121;29;20494;-69
2022/08/04 13:03:55;;;;;;;17.60;16.90;;;41.50;31.00;;;;;;4876313;29;20462;-70
2022/08/04 13:06:26;;;;;;;18.17;17.23;;;41.70;30.90;;;;;;4876529;29;20456;-70
2022/08/04 13:08:54;;;;;;;16.63;16.03;;;41.70;31.20;;;;;;4876664;29;20455;-69
2022/08/04 13:11:21;;;;;;;16.97;16.37;;;41.80;30.90;;;;;;4876272;29;20463;-70
2022/08/04 13:13:53;;;;;;;16.77;16.07;;;41.50;31.40;;;;;;4876032;29;20464;-70
2022/08/04 13:16:29;;;;;;;17.70;17.00;;;41.70;31.30;;;;;;4876155;29;20444;-70
2022/08/04 13:18:58;;;;;;;16.63;16.03;;;41.30;31.90;;;;;;4876317;29;20478;-70
2022/08/04 13:21:29;;;;;;;16.53;15.93;;;41.10;32.50;;;;;;4876600;29;20470;-70
2022/08/04 13:23:58;;;;;;;17.90;16.93;;;41.60;32.50;;;;;;4876366;29;20517;-70
2022/08/04 13:26:27;;;;;;;16.70;16.10;;;42.70;30.50;;;;;;4876215;29;20519;-70
2022/08/04 13:28:57;;;;;;;17.97;17.07;;;42.20;30.50;;;;;;4876213;29;20490;-71
2022/08/04 13:31:27;;;;;;;17.63;16.93;;;41.90;30.50;;;;;;4876270;29;20447;-70
2022/08/04 13:34:04;;;;;;;17.20;16.50;;;41.70;30.80;;;;;;4879116;29;20455;-70
2022/08/04 13:36:31;;;;;;;17.80;17.20;;;42.50;30.80;;;;;;4879433;29;20466;-70
2022/08/04 13:39:02;;;;;;;18.70;18.00;;;43.30;29.90;;;;;;4879105;29;20502;-70
2022/08/04 13:41:30;;;;;;;16.97;16.37;;;44.00;29.60;;;;;;4879230;29;20455;-70
2022/08/04 13:44:00;;;;;;;17.70;17.07;;;44.70;29.20;;;;;;4879649;29;20502;-69
2022/08/04 13:46:31;;;;;;;18.07;17.17;;;43.80;29.00;;;;;;4879738;29;20958;-70
2022/08/04 13:49:07;;;;;;;17.60;16.77;;;44.00;29.30;;;;;;4879361;29;20507;-70
2022/08/04 13:51:36;;;;;;;18.33;17.60;;;43.50;29.40;;;;;;4879255;29;20455;-70
2022/08/04 13:54:04;;;;;;;16.97;16.37;;;42.80;30.00;;;;;;4879139;29;20867;-69
2022/08/04 13:56:35;;;;;;;17.80;17.10;;;42.20;30.50;;;;;;4879003;29;20499;-70
2022/08/04 13:59:03;;;;;;;16.73;16.03;;;41.90;30.90;;;;;;4878977;29;20490;-69
2022/08/04 14:01:31;;;;;;;16.87;16.27;;;41.20;31.00;;;;;;4879097;29;20460;-70
2022/08/04 14:04:09;;;;;;;15.40;14.80;;;41.10;31.20;;;;;;4878918;29;20459;-70
2022/08/04 14:06:47;;;;;;;16.57;15.80;;;41.40;31.00;;;;;;4878982;29;20537;-70
2022/08/04 14:09:16;;;;;;;15.83;15.33;;;41.20;31.10;;;;;;4879238;29;20463;-70
2022/08/04 14:11:45;;;;;;;15.33;14.80;;;41.00;31.20;;;;;;4878894;29;20935;-70
2022/08/04 14:14:20;;;;;;;17.30;16.70;;;41.40;31.10;;;;;;4878730;29;20459;-70
2022/08/04 14:17:03;;;;;;;17.10;16.50;;;41.80;30.70;;;;;;4878992;29;20458;-70
2022/08/04 14:19:50;;;;;;;16.30;15.63;;;41.90;30.70;;;;;;4878705;29;20566;-70
2022/08/04 14:22:33;;;;;;;16.77;15.97;;;42.10;30.40;;;;;;4878776;29;20456;-70
2022/08/04 14:25:04;;;;;;;17.03;16.40;;;41.40;30.90;;;;;;4878341;29;20471;-69
2022/08/04 14:27:41;;;;;;;16.73;16.03;;;40.30;31.70;;;;;;4878402;29;20495;-70
2022/08/04 14:30:20;;;;;;;16.43;15.83;;;39.80;32.50;;;;;;4878593;29;20491;-69
2022/08/04 14:32:58;;;;;;;16.27;15.47;;;39.60;33.20;;;;;;4878282;29;20966;-70
2022/08/04 14:35:26;;;;;;;15.83;15.23;;;39.90;33.50;;;;;;4878682;29;20460;-70
2022/08/04 14:37:54;;;;;;;15.50;14.80;;;39.70;33.70;;;;;;4878601;29;20456;-69
2022/08/04 14:40:29;;;;;;;15.73;15.03;;;38.80;34.50;;;;;;4878175;29;20503;-69
2022/08/04 14:42:56;;;;;;;16.87;16.27;;;38.50;34.50;;;;;;4878517;29;20467;-69
2022/08/04 14:45:31;;;;;;;17.07;16.27;;;38.30;34.70;;;;;;4877789;29;20858;-69
2022/08/04 14:47:59;;;;;;;16.30;15.70;;;38.00;35.00;;;;;;4877955;29;20448;-69
2022/08/04 14:50:38;;;;;;;16.87;16.17;;;37.50;35.40;;;;;;4878575;29;20489;-69
2022/08/04 14:53:07;;;;;;;16.70;16.00;;;38.20;35.20;;;;;;4878083;29;20480;-69
2022/08/04 14:55:36;;;;;;;15.00;14.40;;;38.90;34.40;;;;;;4877887;29;20460;-70
2022/08/04 14:58:03;;;;;;;15.73;15.07;;;39.20;34.60;;;;;;4878052;29;20885;-69
2022/08/04 15:00:33;;;;;;;16.10;15.40;;;39.20;34.30;;;;;;4877755;29;20857;-69
2022/08/04 15:03:03;;;;;;;15.23;14.63;;;38.90;34.30;;;;;;4877927;29;20464;-69
2022/08/04 15:05:32;;;;;;;16.97;16.20;;;38.40;34.80;;;;;;4877927;29;20460;-69
2022/08/04 15:08:00;;;;;;;15.70;14.90;;;38.10;35.00;;;;;;4877891;29;20465;-69
2022/08/04 15:10:28;;;;;;;15.50;14.80;;;37.80;35.70;;;;;;4878073;29;20456;-69
2022/08/04 15:12:55;;;;;;;17.03;16.13;;;37.60;35.80;;;;;;4877615;29;20463;-69
2022/08/04 15:15:23;;;;;;;15.60;14.90;;;37.50;35.80;;;;;;4877672;29;20524;-69
2022/08/04 15:17:51;;;;;;;15.87;15.17;;;37.30;36.10;;;;;;4877682;29;20456;-69
2022/08/04 15:20:17;;;;;;;15.20;14.60;;;37.10;36.70;;;;;;4877839;29;20495;-69
2022/08/04 15:22:44;;;;;;;14.17;13.67;;;36.90;36.70;;;;;;4877611;29;20467;-69
2022/08/04 15:25:12;;;;;;;16.13;15.43;;;37.10;37.10;;;;;;4877810;29;20479;-69
2022/08/04 15:27:41;;;;;;;15.40;14.80;;;37.20;36.20;;;;;;4877154;29;20460;-70
2022/08/04 15:30:09;;;;;;;15.40;14.73;;;37.20;36.30;;;;;;4877311;29;21010;-69
2022/08/04 15:32:38;;;;;;;15.97;15.37;;;37.10;36.30;;;;;;4877251;29;20974;-69
2022/08/04 15:35:09;;;;;;;18.10;17.40;;;37.00;36.90;;;;;;4877317;29;20482;-69
2022/08/04 15:37:49;;;;;;;16.80;16.00;;;36.90;36.80;;;;;;4877145;29;20452;-70
2022/08/04 15:40:21;;;;;;;15.13;14.53;;;36.80;37.20;;;;;;4877413;29;20499;-69